• Join FlightAware (Why Join?)
  • Login
  • US Flag 
08:34AM EDT


 

Airport Tracker/Info


-or-


 

Live Flight TrackerFlight Track Log ✈ ASQ4252 ✈ 21-Jul-2013 ✈ KMSY - KIAH

Flight Track Log - Related Links

Times and Time Zones

All times are in EDT time to prevent confusion due to time zone crossing. See the ASQ4252 flight status page for this flight to view local times or setup timezone preferences in your user account.

Time Position Orientation Groundspeed Altitude Reporting Facility
EDT Latitude Longitude Course Direction KTS MPH feet Rate Location/Type
05:50PM 29.9242 -90.2656 190° South 186 214 2,600  Level Houston Center
05:51PM 29.9000 -90.3294 246° West 227 261 4,700 2,220 Climbing Houston Center
05:52PM 29.8979 -90.4898 249° West  Level FlightAware Approximate
05:52PM 29.8800 -90.4017 252° West 234 269 7,300  Level Houston Center
05:53PM 29.8608 -90.5638 244° Southwest  Level FlightAware Approximate
05:53PM 29.8586 -90.4769 252° West 243 280 9,700  Level Houston Center
05:54PM 29.8272 -90.6422 244° Southwest  Level FlightAware Approximate
05:54PM 29.8356 -90.5592 252° West 265 305 11,100  Level Houston Center
05:55PM 29.8194 -90.6594 260° West 311 358 12,400 1,500 Climbing Houston Center
05:56PM 29.8067 -90.7894 264° West 335 386 14,300 1,680 Climbing Houston Center
05:57PM 29.7956 -90.9000 263° West 345 397 15,900 1,500 Climbing Houston Center
05:58PM 29.7828 -91.0111 262° West 349 402 17,500 1,500 Climbing Houston Center
05:59PM 29.7708 -91.1211 263° West 350 403 19,000 1,380 Climbing Houston Center
06:00PM 29.7503 -91.2311 258° West 352 405 20,400 1,260 Climbing Houston Center
06:01PM 29.7228 -91.3408 254° West 357 411 21,600 1,200 Climbing Houston Center
06:02PM 29.6967 -91.4539 255° West 363 418 22,900 1,320 Climbing Houston Center
06:04PM 29.6644 -91.5883 255° West 364 419 24,400 1,320 Climbing Houston Center
06:05PM 29.6381 -91.7000 255° West 363 418 25,700 720 Climbing Houston Center
06:06PM 29.6128 -91.8094 255° West 366 421 26,000 120 Climbing Houston Center
06:07PM 29.5828 -91.9331 254° West 392 451 26,000  Level Houston Center
06:08PM 29.5514 -92.0642 255° West 420 483 26,000  Level Houston Center
06:09PM 29.5156 -92.2242 256° West 431 496 26,000  Level Houston Center
06:10PM 29.5158 -92.3656 270° West 438 504 26,000  Level Houston Center
06:11PM 29.5167 -92.5047 270° West 441 507 26,000  Level Houston Center
06:12PM 29.5175 -92.6464 270° West 442 509 26,000  Level Houston Center
06:13PM 29.5178 -92.7900 270° West 449 517 26,000 -540 Level Houston Center
06:14PM 29.5192 -92.9339 271° West 451 519 25,000 -1,260 Descending Houston Center
06:15PM 29.5192 -93.0769 270° West 449 517 23,500 -1,620 Descending Houston Center
06:16PM 29.5194 -93.2456 270° West 442 509 21,700 -1,560 Descending Houston Center
06:17PM 29.5186 -93.3844 270° West 436 502 20,300 -1,500 Descending Houston Center
06:18PM 29.5189 -93.5219 270° West 431 496 18,700 -1,560 Descending Houston Center
06:19PM 29.5183 -93.6506 270° West 409 471 17,200 -1,500 Descending Houston Center
06:20PM 29.5172 -93.7761 269° West 395 455 15,700 -1,560 Descending Houston Center
06:21PM 29.5172 -93.9075 270° West 379 436 14,100 -1,320 Descending Houston Center
06:22PM 29.5211 -94.0158 272° West 374 430 13,000 -660 Descending Houston Center
06:23PM 29.5250 -94.1058 273° West 336 387 13,000  Level Houston Center
06:24PM 29.5278 -94.1969 272° West 319 367 13,000  Level Houston Center
06:25PM 29.5308 -94.3094 272° West 332 382 13,000 -180 Level Houston Center
06:26PM 29.5753 -94.3975 300° West 318 366 12,700 -1,020 Descending Houston Center
06:27PM 29.6378 -94.4761 312° West 291 335 10,900 -2,040 Descending Houston Center
06:28PM 29.6878 -94.5369 313° West 282 325 8,600 -1,980 Descending Houston Center
06:28PM 29.7117 -94.5650 314° West 286 329 8,100 -1,020 Descending Houston Center
06:29PM 29.7592 -94.6281 311° West 271 312 7,100 -720 Descending Houston Center
06:30PM 29.7853 -94.6736 303° West 261 300 7,000 -120 Descending Houston Center
06:31PM 29.8222 -94.7317 306° West 269 310 7,000 -180 Level Houston Center
06:31PM 29.8450 -94.7647 308° West 270 311 6,800 -780 Descending Houston Center
06:32PM 29.8767 -94.8164 305° West 266 306 6,100 -540 Descending Houston Center
06:33PM 29.9161 -94.8764 307° West 257 296 6,000 -420 Descending Houston Center
06:33PM 29.9394 -94.9117 307° West 260 299 5,500 -840 Descending Houston Center
06:34PM 29.9803 -94.9778 306° West 257 296 4,700 -960 Descending Houston Center
06:35PM 29.9933 -95.0414 283° West 218 251 3,600 -840 Descending Houston Center
06:36PM 29.9933 -95.1075 270° West 210 242 3,000 -540 Descending Houston Center
06:38PM 29.9936 -95.1747 270° West 210 242 2,600 -420 Descending Houston Center